»·PEaware :: FDX492 KSAN-KPHX

FDX492 :: KSAN-KPHX

FLIGHT INFORMATION

Flight Status: Arrived
Operator:
Federal Express
More flights by this operator :: More flights under this callsign
Pilot: Mike C. (16705)
Aircraft: Unknown
(B77W)
More flights by this aircraft type
Origin: KSAN San Diego Intl-Lindbergh
United States
Destination: KPHX Phoenix Sky Harbor Intl
United States
More flights between these airports :: More routes between these airports
Route: ZZOOO2 IPL J18 BZA HOGGZ HYDRR1
File this flight plan on PilotEdge
Remarks: RMK / SIMBRIEF
Altitude:
(Current/Filed)
37,000ft
Speed:
(Current/Filed)
478kts
Departed: 11-Feb-20 07:00 PM
Arrived: 11-Feb-20 08:03 PM
Distance/Time
Traveled:
263nm/1:03
Distance/Time
To Go:
Arrived

Flight Plot

Page will automatically refresh every two minutes.

Flight plan parsing failed; only flown route is shown


Map Options




Map Legend


Flown Route
Filed Route
Departure Airport
Arrival Airport
Navaid (VOR, NDB)
Fix

Horizontal Profiles

Position Reports

Time Latitude Longitude Heading Altitude Ground
Speed
11-Feb-20 18:36 32.735273 -117.189293 196 28ft 0kts
11-Feb-20 18:37 32.735273 -117.189293 196 28ft 0kts
11-Feb-20 18:38 32.735273 -117.189293 196 28ft 0kts
11-Feb-20 18:39 32.735273 -117.189293 196 28ft 0kts
11-Feb-20 18:40 32.735273 -117.189293 196 28ft 0kts
11-Feb-20 18:41 32.735273 -117.189293 196 28ft 0kts
11-Feb-20 18:42 32.735273 -117.189293 196 28ft 0kts
11-Feb-20 18:43 32.735273 -117.189293 196 28ft 0kts
11-Feb-20 18:44 32.735273 -117.189293 196 28ft 0kts
11-Feb-20 18:45 32.735273 -117.189293 196 28ft 0kts
11-Feb-20 18:46 32.735273 -117.189293 196 28ft 0kts
11-Feb-20 18:47 32.735273 -117.189293 196 28ft 0kts
11-Feb-20 18:48 32.735273 -117.189293 196 28ft 0kts
11-Feb-20 18:49 32.735272 -117.189293 196 28ft 0kts
11-Feb-20 18:50 32.735271 -117.189293 196 28ft 0kts
11-Feb-20 18:51 32.735271 -117.189293 196 28ft 0kts
11-Feb-20 18:52 32.734098 -117.187208 107 28ft 17kts
11-Feb-20 18:53 32.733348 -117.184162 111 28ft 8kts
11-Feb-20 18:54 32.732900 -117.182391 106 28ft 7kts
11-Feb-20 18:55 32.732407 -117.180299 103 28ft 8kts
11-Feb-20 18:56 32.731682 -117.177141 106 28ft 9kts
11-Feb-20 18:57 32.731104 -117.175715 135 28ft 0kts
11-Feb-20 18:58 32.730557 -117.175285 161 28ft 12kts
11-Feb-20 18:59 32.731799 -117.182483 285 29ft 124kts
11-Feb-20 19:00 32.746748 -117.243636 286 3196ft 224kts
11-Feb-20 19:01 32.743174 -117.321976 229 6867ft 285kts
11-Feb-20 19:02 32.667563 -117.318731 132 10739ft 319kts
11-Feb-20 19:03 32.631152 -117.213342 97 13432ft 377kts
11-Feb-20 19:04 32.617177 -117.085815 90 17208ft 403kts
11-Feb-20 19:05 32.606100 -116.949579 84 20873ft 419kts
11-Feb-20 19:06 32.623525 -116.814632 64 24009ft 421kts
11-Feb-20 19:07 32.640938 -116.673959 77 27234ft 448kts
11-Feb-20 19:08 32.654337 -116.523905 75 30060ft 463kts
11-Feb-20 19:09 32.669309 -116.370357 73 32775ft 464kts
11-Feb-20 19:10 32.683930 -116.218584 74 35151ft 464kts
11-Feb-20 19:11 32.698130 -116.065078 75 36916ft 470kts
11-Feb-20 19:12 32.710801 -115.927540 76 37078ft 471kts
11-Feb-20 19:13 32.725193 -115.774619 76 37086ft 471kts
11-Feb-20 19:14 32.739012 -115.619723 76 37080ft 472kts
11-Feb-20 19:15 32.745501 -115.546584 76 37064ft 472kts
11-Feb-20 19:16 32.752383 -115.389077 81 37066ft 478kts
11-Feb-20 19:17 32.755688 -115.231661 81 37073ft 472kts
11-Feb-20 19:18 32.758770 -115.083286 80 36014ft 445kts
11-Feb-20 19:19 32.761979 -114.938459 79 34531ft 431kts
11-Feb-20 19:20 32.764745 -114.796496 78 33126ft 417kts
11-Feb-20 19:21 32.767095 -114.661275 78 31774ft 403kts
11-Feb-20 19:22 32.769120 -114.530090 78 30431ft 391kts
11-Feb-20 19:23 32.771105 -114.402314 77 29025ft 381kts
11-Feb-20 19:24 32.772706 -114.277922 78 27567ft 374kts
11-Feb-20 19:25 32.773979 -114.155254 78 26694ft 370kts
11-Feb-20 19:26 32.777499 -114.033822 72 26695ft 358kts
11-Feb-20 19:28 32.791752 -113.917449 71 26695ft 355kts
11-Feb-20 19:29 32.804311 -113.801838 72 26696ft 355kts
11-Feb-20 19:30 32.821332 -113.687117 54 26696ft 332kts
11-Feb-20 19:31 32.878005 -113.604750 39 26080ft 319kts
11-Feb-20 19:32 32.936511 -113.527299 41 24619ft 313kts
11-Feb-20 19:33 32.993796 -113.449830 42 23111ft 308kts
11-Feb-20 19:34 33.049490 -113.374422 42 21652ft 302kts
11-Feb-20 19:35 33.104460 -113.300569 42 20459ft 297kts
11-Feb-20 19:36 33.161205 -113.223617 43 18507ft 311kts
11-Feb-20 19:37 33.217649 -113.146833 44 16892ft 308kts
11-Feb-20 19:38 33.269299 -113.065085 67 15260ft 315kts
11-Feb-20 19:39 33.277727 -112.959724 85 13765ft 320kts
11-Feb-20 19:40 33.280039 -112.854394 83 12309ft 314kts
11-Feb-20 19:41 33.284589 -112.753618 84 11418ft 294kts
11-Feb-20 19:42 33.289261 -112.656589 84 11066ft 292kts
11-Feb-20 19:43 33.294122 -112.559651 84 11062ft 292kts
11-Feb-20 19:44 33.299203 -112.462613 84 11056ft 292kts
11-Feb-20 19:45 33.304464 -112.365369 84 11052ft 292kts
11-Feb-20 19:46 33.309798 -112.270027 84 10456ft 283kts
11-Feb-20 19:46 33.313811 -112.195745 84 10228ft 251kts
11-Feb-20 19:48 33.317920 -112.118633 84 9368ft 239kts
11-Feb-20 19:49 33.322956 -112.029691 84 8166ft 251kts
11-Feb-20 19:50 33.327487 -111.949961 85 7292ft 232kts
11-Feb-20 19:50 33.330455 -111.890572 85 7176ft 209kts
11-Feb-20 19:51 33.333915 -111.820630 85 7193ft 209kts
11-Feb-20 19:52 33.337255 -111.753460 85 7142ft 212kts
11-Feb-20 19:53 33.341131 -111.679587 84 5940ft 209kts
11-Feb-20 19:54 33.372644 -111.649787 338 4836ft 189kts
11-Feb-20 19:56 33.419356 -111.704400 311 4002ft 178kts
11-Feb-20 19:56 33.428556 -111.751180 273 3761ft 178kts
11-Feb-20 19:57 33.428730 -111.810720 271 3664ft 179kts
11-Feb-20 19:58 33.428768 -111.871208 271 3246ft 177kts
11-Feb-20 19:59 33.428800 -111.924703 271 2396ft 146kts
11-Feb-20 20:00 33.428947 -111.970811 270 1593ft 135kts
11-Feb-20 20:01 33.428772 -112.012512 268 1149ft 81kts
11-Feb-20 20:02 33.429080 -112.024732 300 1148ft 19kts
11-Feb-20 20:03 33.429996 -112.026676 307 1148ft 0kts

Navigation Log

Ident Type
Flight plan parsing failed, navigation log unavailable